Terminal Aerodrome Forecast
Issued by NWS Quad Cities IA IL

Home | Current Version | Previous Version | Text Only | Print | Product List | Glossary On
Versions: 1 2 3 4 5 6 7 8 9 10 11 12 13 14 15 16 17 18 19 20 21 22 23 24 25 26 27 28 29
000
FTUS43 KDVN 270300 AAC
TAFDBQ
TAF AMD
KDBQ 270350Z 2704/2724 36012KT 6SM -SN BR SCT008 OVC060
      TEMPO 2704/2707 BKN015
     FM270700 35012KT P6SM OVC035
     FM271100 31008KT P6SM SCT040=

USA.gov is the U.S. government's official web portal to all federal, state and local government web resources and services.